sensor_id;sensor_type;location;lat;lon;timestamp;P1;durP1;ratioP1;P2;durP2;ratioP2
63087;SDS011;49173;43.164;27.786;2022-10-16T00:01:26;13.25;;;8.38;;
63087;SDS011;49173;43.164;27.786;2022-10-16T00:03:54;16.02;;;8.32;;
63087;SDS011;49173;43.164;27.786;2022-10-16T00:06:21;12.10;;;7.70;;
63087;SDS011;49173;43.164;27.786;2022-10-16T00:08:48;14.13;;;7.88;;
63087;SDS011;49173;43.164;27.786;2022-10-16T00:11:21;9.82;;;7.85;;
63087;SDS011;49173;43.164;27.786;2022-10-16T00:13:50;16.02;;;8.10;;
63087;SDS011;49173;43.164;27.786;2022-10-16T00:16:19;11.15;;;7.32;;
63087;SDS011;49173;43.164;27.786;2022-10-16T00:18:45;10.52;;;7.30;;
63087;SDS011;49173;43.164;27.786;2022-10-16T00:21:13;11.85;;;6.35;;
63087;SDS011;49173;43.164;27.786;2022-10-16T00:23:41;9.25;;;6.03;;
63087;SDS011;49173;43.164;27.786;2022-10-16T00:26:08;10.23;;;5.80;;
63087;SDS011;49173;43.164;27.786;2022-10-16T00:28:37;13.73;;;6.50;;
63087;SDS011;49173;43.164;27.786;2022-10-16T00:31:04;8.45;;;5.50;;
63087;SDS011;49173;43.164;27.786;2022-10-16T00:33:31;7.43;;;5.53;;
63087;SDS011;49173;43.164;27.786;2022-10-16T00:35:58;10.25;;;5.70;;
63087;SDS011;49173;43.164;27.786;2022-10-16T00:38:24;10.50;;;5.40;;
63087;SDS011;49173;43.164;27.786;2022-10-16T00:40:50;10.75;;;5.30;;
63087;SDS011;49173;43.164;27.786;2022-10-16T00:46:23;8.25;;;4.93;;
63087;SDS011;49173;43.164;27.786;2022-10-16T00:49:10;7.10;;;4.85;;
63087;SDS011;49173;43.164;27.786;2022-10-16T00:51:43;7.75;;;4.88;;
63087;SDS011;49173;43.164;27.786;2022-10-16T00:54:21;8.60;;;5.22;;
63087;SDS011;49173;43.164;27.786;2022-10-16T00:56:50;9.35;;;4.95;;
63087;SDS011;49173;43.164;27.786;2022-10-16T00:59:20;11.73;;;4.95;;
63087;SDS011;49173;43.164;27.786;2022-10-16T01:01:50;7.68;;;5.00;;
63087;SDS011;49173;43.164;27.786;2022-10-16T01:04:17;12.40;;;5.05;;
63087;SDS011;49173;43.164;27.786;2022-10-16T01:09:21;7.72;;;4.47;;
63087;SDS011;49173;43.164;27.786;2022-10-16T01:12:10;8.80;;;5.03;;
63087;SDS011;49173;43.164;27.786;2022-10-16T01:20:05;9.35;;;5.57;;
63087;SDS011;49173;43.164;27.786;2022-10-16T01:22:37;7.13;;;5.35;;
63087;SDS011;49173;43.164;27.786;2022-10-16T01:25:11;6.70;;;4.68;;
63087;SDS011;49173;43.164;27.786;2022-10-16T01:27:45;9.82;;;4.90;;
63087;SDS011;49173;43.164;27.786;2022-10-16T01:30:16;11.07;;;5.15;;
63087;SDS011;49173;43.164;27.786;2022-10-16T01:32:55;6.55;;;5.13;;
63087;SDS011;49173;43.164;27.786;2022-10-16T01:35:27;10.02;;;5.50;;
63087;SDS011;49173;43.164;27.786;2022-10-16T01:37:59;7.00;;;5.22;;
63087;SDS011;49173;43.164;27.786;2022-10-16T01:40:31;10.90;;;5.90;;
63087;SDS011;49173;43.164;27.786;2022-10-16T01:43:08;8.95;;;5.60;;
63087;SDS011;49173;43.164;27.786;2022-10-16T01:45:39;11.77;;;5.13;;
63087;SDS011;49173;43.164;27.786;2022-10-16T01:48:07;12.38;;;6.15;;
63087;SDS011;49173;43.164;27.786;2022-10-16T01:50:38;10.73;;;5.75;;
63087;SDS011;49173;43.164;27.786;2022-10-16T01:53:07;11.32;;;6.63;;
63087;SDS011;49173;43.164;27.786;2022-10-16T01:55:38;13.68;;;7.53;;
63087;SDS011;49173;43.164;27.786;2022-10-16T01:58:10;8.30;;;6.55;;
63087;SDS011;49173;43.164;27.786;2022-10-16T02:00:39;9.02;;;6.75;;
63087;SDS011;49173;43.164;27.786;2022-10-16T02:03:08;11.90;;;6.45;;
63087;SDS011;49173;43.164;27.786;2022-10-16T02:05:42;11.30;;;7.38;;
63087;SDS011;49173;43.164;27.786;2022-10-16T02:08:18;8.75;;;7.03;;
63087;SDS011;49173;43.164;27.786;2022-10-16T02:10:45;12.93;;;6.68;;
63087;SDS011;49173;43.164;27.786;2022-10-16T02:13:23;12.85;;;7.03;;
63087;SDS011;49173;43.164;27.786;2022-10-16T02:16:10;10.27;;;6.55;;
63087;SDS011;49173;43.164;27.786;2022-10-16T02:18:36;11.40;;;7.05;;
63087;SDS011;49173;43.164;27.786;2022-10-16T02:21:05;22.83;;;7.20;;
63087;SDS011;49173;43.164;27.786;2022-10-16T02:26:28;9.90;;;6.70;;
63087;SDS011;49173;43.164;27.786;2022-10-16T02:29:07;9.05;;;6.15;;
63087;SDS011;49173;43.164;27.786;2022-10-16T02:31:38;8.73;;;5.95;;
63087;SDS011;49173;43.164;27.786;2022-10-16T02:34:07;11.90;;;6.32;;
63087;SDS011;49173;43.164;27.786;2022-10-16T02:36:37;10.88;;;6.32;;
63087;SDS011;49173;43.164;27.786;2022-10-16T02:39:04;10.55;;;6.82;;
63087;SDS011;49173;43.164;27.786;2022-10-16T02:41:31;13.77;;;6.63;;
63087;SDS011;49173;43.164;27.786;2022-10-16T02:43:58;10.10;;;6.60;;
63087;SDS011;49173;43.164;27.786;2022-10-16T02:46:23;12.20;;;7.10;;
63087;SDS011;49173;43.164;27.786;2022-10-16T02:48:49;10.52;;;7.05;;
63087;SDS011;49173;43.164;27.786;2022-10-16T02:51:15;10.50;;;6.50;;
63087;SDS011;49173;43.164;27.786;2022-10-16T02:53:41;10.43;;;6.43;;
63087;SDS011;49173;43.164;27.786;2022-10-16T02:56:06;10.80;;;6.15;;
63087;SDS011;49173;43.164;27.786;2022-10-16T02:58:33;12.60;;;6.63;;
63087;SDS011;49173;43.164;27.786;2022-10-16T03:00:58;9.80;;;5.85;;
63087;SDS011;49173;43.164;27.786;2022-10-16T03:03:24;10.80;;;8.10;;
63087;SDS011;49173;43.164;27.786;2022-10-16T03:05:50;9.20;;;6.15;;
63087;SDS011;49173;43.164;27.786;2022-10-16T03:08:15;9.25;;;6.28;;
63087;SDS011;49173;43.164;27.786;2022-10-16T03:10:41;12.85;;;6.45;;
63087;SDS011;49173;43.164;27.786;2022-10-16T03:13:07;8.00;;;5.78;;
63087;SDS011;49173;43.164;27.786;2022-10-16T03:15:33;9.80;;;6.30;;
63087;SDS011;49173;43.164;27.786;2022-10-16T03:17:59;12.05;;;6.43;;
63087;SDS011;49173;43.164;27.786;2022-10-16T03:20:25;11.13;;;5.97;;
63087;SDS011;49173;43.164;27.786;2022-10-16T03:22:51;13.25;;;7.00;;
63087;SDS011;49173;43.164;27.786;2022-10-16T03:25:17;11.45;;;6.53;;
63087;SDS011;49173;43.164;27.786;2022-10-16T03:27:43;9.05;;;6.00;;
63087;SDS011;49173;43.164;27.786;2022-10-16T03:30:09;10.40;;;6.43;;
63087;SDS011;49173;43.164;27.786;2022-10-16T03:32:35;11.38;;;6.60;;
63087;SDS011;49173;43.164;27.786;2022-10-16T03:35:01;10.30;;;6.55;;
63087;SDS011;49173;43.164;27.786;2022-10-16T03:37:27;15.45;;;8.02;;
63087;SDS011;49173;43.164;27.786;2022-10-16T03:39:53;11.65;;;7.70;;
63087;SDS011;49173;43.164;27.786;2022-10-16T03:42:20;13.52;;;8.18;;
63087;SDS011;49173;43.164;27.786;2022-10-16T03:44:45;9.70;;;6.47;;
63087;SDS011;49173;43.164;27.786;2022-10-16T03:47:11;9.52;;;5.93;;
63087;SDS011;49173;43.164;27.786;2022-10-16T03:49:37;11.57;;;6.18;;
63087;SDS011;49173;43.164;27.786;2022-10-16T03:52:02;9.90;;;5.78;;
63087;SDS011;49173;43.164;27.786;2022-10-16T03:54:28;10.85;;;5.38;;
63087;SDS011;49173;43.164;27.786;2022-10-16T03:56:54;9.13;;;4.82;;
63087;SDS011;49173;43.164;27.786;2022-10-16T03:59:20;6.68;;;4.47;;
63087;SDS011;49173;43.164;27.786;2022-10-16T04:01:46;7.72;;;4.38;;
63087;SDS011;49173;43.164;27.786;2022-10-16T04:04:12;5.80;;;4.53;;
63087;SDS011;49173;43.164;27.786;2022-10-16T04:06:37;7.90;;;4.68;;
63087;SDS011;49173;43.164;27.786;2022-10-16T04:09:03;8.75;;;4.97;;
63087;SDS011;49173;43.164;27.786;2022-10-16T04:11:29;6.63;;;4.70;;
63087;SDS011;49173;43.164;27.786;2022-10-16T04:13:55;11.82;;;4.78;;
63087;SDS011;49173;43.164;27.786;2022-10-16T04:16:21;9.60;;;5.60;;
63087;SDS011;49173;43.164;27.786;2022-10-16T04:18:46;9.50;;;4.90;;
63087;SDS011;49173;43.164;27.786;2022-10-16T04:21:12;10.45;;;5.28;;
63087;SDS011;49173;43.164;27.786;2022-10-16T04:23:38;8.63;;;5.57;;
63087;SDS011;49173;43.164;27.786;2022-10-16T04:26:04;13.65;;;5.80;;
63087;SDS011;49173;43.164;27.786;2022-10-16T04:28:29;10.35;;;5.35;;
63087;SDS011;49173;43.164;27.786;2022-10-16T04:30:55;8.23;;;5.30;;
63087;SDS011;49173;43.164;27.786;2022-10-16T04:33:21;6.85;;;4.95;;
63087;SDS011;49173;43.164;27.786;2022-10-16T04:35:47;7.35;;;5.40;;
63087;SDS011;49173;43.164;27.786;2022-10-16T04:38:13;10.15;;;6.60;;
63087;SDS011;49173;43.164;27.786;2022-10-16T04:40:41;8.40;;;7.28;;
63087;SDS011;49173;43.164;27.786;2022-10-16T04:43:08;12.15;;;8.82;;
63087;SDS011;49173;43.164;27.786;2022-10-16T04:45:34;10.65;;;8.10;;
63087;SDS011;49173;43.164;27.786;2022-10-16T04:48:00;10.75;;;7.38;;
63087;SDS011;49173;43.164;27.786;2022-10-16T04:50:25;10.18;;;6.45;;
63087;SDS011;49173;43.164;27.786;2022-10-16T04:52:51;9.57;;;5.82;;
63087;SDS011;49173;43.164;27.786;2022-10-16T04:55:17;10.70;;;5.60;;
63087;SDS011;49173;43.164;27.786;2022-10-16T04:57:42;7.82;;;5.28;;
63087;SDS011;49173;43.164;27.786;2022-10-16T05:00:08;9.52;;;5.80;;
63087;SDS011;49173;43.164;27.786;2022-10-16T05:02:35;10.23;;;6.18;;
63087;SDS011;49173;43.164;27.786;2022-10-16T05:05:00;10.50;;;5.90;;
63087;SDS011;49173;43.164;27.786;2022-10-16T05:07:26;8.93;;;5.90;;
63087;SDS011;49173;43.164;27.786;2022-10-16T05:09:52;9.82;;;5.47;;
63087;SDS011;49173;43.164;27.786;2022-10-16T05:12:18;15.63;;;6.00;;
63087;SDS011;49173;43.164;27.786;2022-10-16T05:14:44;9.38;;;6.10;;
63087;SDS011;49173;43.164;27.786;2022-10-16T05:17:09;15.00;;;6.05;;
63087;SDS011;49173;43.164;27.786;2022-10-16T05:19:35;7.40;;;5.60;;
63087;SDS011;49173;43.164;27.786;2022-10-16T05:22:01;11.32;;;6.38;;
63087;SDS011;49173;43.164;27.786;2022-10-16T05:24:27;10.45;;;6.43;;
63087;SDS011;49173;43.164;27.786;2022-10-16T05:26:53;7.82;;;5.70;;
63087;SDS011;49173;43.164;27.786;2022-10-16T05:29:19;7.00;;;5.72;;
63087;SDS011;49173;43.164;27.786;2022-10-16T05:31:45;7.78;;;5.82;;
63087;SDS011;49173;43.164;27.786;2022-10-16T05:34:10;9.68;;;6.13;;
63087;SDS011;49173;43.164;27.786;2022-10-16T05:36:36;10.23;;;6.03;;
63087;SDS011;49173;43.164;27.786;2022-10-16T05:39:02;8.75;;;5.63;;
63087;SDS011;49173;43.164;27.786;2022-10-16T05:41:28;10.63;;;6.03;;
63087;SDS011;49173;43.164;27.786;2022-10-16T05:43:54;11.73;;;5.88;;
63087;SDS011;49173;43.164;27.786;2022-10-16T05:46:20;12.90;;;6.00;;
63087;SDS011;49173;43.164;27.786;2022-10-16T05:48:45;7.28;;;5.68;;
63087;SDS011;49173;43.164;27.786;2022-10-16T05:51:12;7.57;;;5.50;;
63087;SDS011;49173;43.164;27.786;2022-10-16T05:53:39;7.35;;;5.45;;
63087;SDS011;49173;43.164;27.786;2022-10-16T05:56:07;8.75;;;5.55;;
63087;SDS011;49173;43.164;27.786;2022-10-16T05:58:35;10.40;;;5.72;;
63087;SDS011;49173;43.164;27.786;2022-10-16T06:01:20;7.90;;;5.10;;
63087;SDS011;49173;43.164;27.786;2022-10-16T06:03:49;9.13;;;4.72;;
63087;SDS011;49173;43.164;27.786;2022-10-16T06:06:17;9.75;;;5.03;;
63087;SDS011;49173;43.164;27.786;2022-10-16T06:08:45;8.15;;;4.57;;
63087;SDS011;49173;43.164;27.786;2022-10-16T06:11:13;7.30;;;4.13;;
63087;SDS011;49173;43.164;27.786;2022-10-16T06:13:42;6.20;;;4.10;;
63087;SDS011;49173;43.164;27.786;2022-10-16T06:16:09;6.07;;;4.15;;
63087;SDS011;49173;43.164;27.786;2022-10-16T06:18:35;6.50;;;4.13;;
63087;SDS011;49173;43.164;27.786;2022-10-16T06:21:06;7.15;;;3.90;;
63087;SDS011;49173;43.164;27.786;2022-10-16T06:23:34;6.88;;;4.15;;
63087;SDS011;49173;43.164;27.786;2022-10-16T06:26:06;8.85;;;5.03;;
63087;SDS011;49173;43.164;27.786;2022-10-16T06:28:33;8.00;;;4.80;;
63087;SDS011;49173;43.164;27.786;2022-10-16T06:30:59;11.45;;;5.80;;
63087;SDS011;49173;43.164;27.786;2022-10-16T06:33:26;8.85;;;5.43;;
63087;SDS011;49173;43.164;27.786;2022-10-16T06:35:52;8.38;;;4.80;;
63087;SDS011;49173;43.164;27.786;2022-10-16T06:38:17;16.55;;;6.40;;
63087;SDS011;49173;43.164;27.786;2022-10-16T06:40:43;7.10;;;4.45;;
63087;SDS011;49173;43.164;27.786;2022-10-16T06:43:09;6.88;;;5.60;;
63087;SDS011;49173;43.164;27.786;2022-10-16T06:45:34;14.82;;;5.30;;
63087;SDS011;49173;43.164;27.786;2022-10-16T06:48:00;8.35;;;5.57;;
63087;SDS011;49173;43.164;27.786;2022-10-16T06:50:26;9.15;;;6.22;;
63087;SDS011;49173;43.164;27.786;2022-10-16T06:52:52;8.20;;;5.55;;
63087;SDS011;49173;43.164;27.786;2022-10-16T06:55:17;9.77;;;5.90;;
63087;SDS011;49173;43.164;27.786;2022-10-16T06:57:43;8.13;;;5.80;;
63087;SDS011;49173;43.164;27.786;2022-10-16T07:00:12;6.95;;;5.80;;
63087;SDS011;49173;43.164;27.786;2022-10-16T07:02:39;8.70;;;5.85;;
63087;SDS011;49173;43.164;27.786;2022-10-16T07:05:05;6.93;;;5.18;;
63087;SDS011;49173;43.164;27.786;2022-10-16T07:07:31;7.78;;;5.68;;
63087;SDS011;49173;43.164;27.786;2022-10-16T07:09:59;18.02;;;5.47;;
63087;SDS011;49173;43.164;27.786;2022-10-16T07:12:25;8.63;;;5.47;;
63087;SDS011;49173;43.164;27.786;2022-10-16T07:14:50;20.08;;;13.25;;
63087;SDS011;49173;43.164;27.786;2022-10-16T07:17:17;10.02;;;5.50;;
63087;SDS011;49173;43.164;27.786;2022-10-16T07:19:43;16.20;;;9.68;;
63087;SDS011;49173;43.164;27.786;2022-10-16T07:22:09;7.75;;;4.40;;
63087;SDS011;49173;43.164;27.786;2022-10-16T07:24:35;8.35;;;3.95;;
63087;SDS011;49173;43.164;27.786;2022-10-16T07:27:01;8.73;;;4.43;;
63087;SDS011;49173;43.164;27.786;2022-10-16T07:29:27;5.65;;;3.70;;
63087;SDS011;49173;43.164;27.786;2022-10-16T07:31:52;22.45;;;10.02;;
63087;SDS011;49173;43.164;27.786;2022-10-16T07:34:18;10.00;;;3.65;;
63087;SDS011;49173;43.164;27.786;2022-10-16T07:36:47;6.95;;;2.90;;
63087;SDS011;49173;43.164;27.786;2022-10-16T07:39:14;22.92;;;8.23;;
63087;SDS011;49173;43.164;27.786;2022-10-16T07:41:40;18.88;;;10.05;;
63087;SDS011;49173;43.164;27.786;2022-10-16T07:44:06;15.75;;;7.43;;
63087;SDS011;49173;43.164;27.786;2022-10-16T07:46:32;15.35;;;5.95;;
63087;SDS011;49173;43.164;27.786;2022-10-16T07:48:59;105.60;;;44.95;;
63087;SDS011;49173;43.164;27.786;2022-10-16T07:51:25;91.32;;;47.17;;
63087;SDS011;49173;43.164;27.786;2022-10-16T07:53:51;8.73;;;3.63;;
63087;SDS011;49173;43.164;27.786;2022-10-16T07:56:18;59.58;;;35.22;;
63087;SDS011;49173;43.164;27.786;2022-10-16T07:58:44;22.88;;;13.30;;
63087;SDS011;49173;43.164;27.786;2022-10-16T08:01:11;36.70;;;18.33;;
63087;SDS011;49173;43.164;27.786;2022-10-16T08:03:41;6.50;;;3.30;;
63087;SDS011;49173;43.164;27.786;2022-10-16T08:06:08;17.52;;;7.13;;
63087;SDS011;49173;43.164;27.786;2022-10-16T08:08:34;5.95;;;2.30;;
63087;SDS011;49173;43.164;27.786;2022-10-16T08:11:00;23.52;;;10.80;;
63087;SDS011;49173;43.164;27.786;2022-10-16T08:13:29;11.95;;;5.35;;
63087;SDS011;49173;43.164;27.786;2022-10-16T08:15:55;3.92;;;2.17;;
63087;SDS011;49173;43.164;27.786;2022-10-16T08:18:21;14.73;;;5.68;;
63087;SDS011;49173;43.164;27.786;2022-10-16T08:20:47;4.47;;;2.20;;
63087;SDS011;49173;43.164;27.786;2022-10-16T08:23:13;7.28;;;2.05;;
63087;SDS011;49173;43.164;27.786;2022-10-16T08:25:39;4.70;;;2.13;;
63087;SDS011;49173;43.164;27.786;2022-10-16T08:28:06;7.40;;;2.30;;
63087;SDS011;49173;43.164;27.786;2022-10-16T08:30:34;5.97;;;2.10;;
63087;SDS011;49173;43.164;27.786;2022-10-16T08:33:00;10.10;;;5.30;;
63087;SDS011;49173;43.164;27.786;2022-10-16T08:35:26;3.70;;;2.03;;
63087;SDS011;49173;43.164;27.786;2022-10-16T08:37:52;6.57;;;2.50;;
63087;SDS011;49173;43.164;27.786;2022-10-16T08:40:19;4.97;;;2.90;;
63087;SDS011;49173;43.164;27.786;2022-10-16T08:51:16;3.50;;;2.08;;
63087;SDS011;49173;43.164;27.786;2022-10-16T08:56:17;6.40;;;2.20;;
63087;SDS011;49173;43.164;27.786;2022-10-16T08:58:44;7.28;;;2.35;;
63087;SDS011;49173;43.164;27.786;2022-10-16T09:01:12;5.05;;;2.65;;
63087;SDS011;49173;43.164;27.786;2022-10-16T09:07:03;29.95;;;15.95;;
63087;SDS011;49173;43.164;27.786;2022-10-16T09:10:16;32.22;;;16.05;;
63087;SDS011;49173;43.164;27.786;2022-10-16T09:23:28;5.13;;;2.10;;
63087;SDS011;49173;43.164;27.786;2022-10-16T09:26:20;5.70;;;3.40;;
63087;SDS011;49173;43.164;27.786;2022-10-16T09:28:48;4.97;;;1.80;;
63087;SDS011;49173;43.164;27.786;2022-10-16T09:31:20;5.07;;;2.20;;
63087;SDS011;49173;43.164;27.786;2022-10-16T09:33:50;5.82;;;2.00;;
63087;SDS011;49173;43.164;27.786;2022-10-16T09:36:19;6.38;;;2.10;;
63087;SDS011;49173;43.164;27.786;2022-10-16T09:38:46;5.32;;;2.50;;
63087;SDS011;49173;43.164;27.786;2022-10-16T09:41:19;7.35;;;2.00;;
63087;SDS011;49173;43.164;27.786;2022-10-16T09:43:48;5.60;;;2.30;;
63087;SDS011;49173;43.164;27.786;2022-10-16T09:46:35;3.35;;;2.13;;
63087;SDS011;49173;43.164;27.786;2022-10-16T09:49:18;4.82;;;2.05;;
63087;SDS011;49173;43.164;27.786;2022-10-16T09:51:48;5.45;;;1.85;;
63087;SDS011;49173;43.164;27.786;2022-10-16T09:54:15;4.65;;;2.05;;
63087;SDS011;49173;43.164;27.786;2022-10-16T09:56:46;5.13;;;2.08;;
63087;SDS011;49173;43.164;27.786;2022-10-16T09:59:17;8.27;;;2.22;;
63087;SDS011;49173;43.164;27.786;2022-10-16T10:01:46;6.30;;;2.25;;
63087;SDS011;49173;43.164;27.786;2022-10-16T10:04:14;6.20;;;2.60;;
63087;SDS011;49173;43.164;27.786;2022-10-16T10:06:42;6.80;;;2.13;;
63087;SDS011;49173;43.164;27.786;2022-10-16T10:11:59;3.58;;;1.83;;
63087;SDS011;49173;43.164;27.786;2022-10-16T10:14:34;3.30;;;1.73;;
63087;SDS011;49173;43.164;27.786;2022-10-16T10:22:25;5.93;;;1.90;;
63087;SDS011;49173;43.164;27.786;2022-10-16T10:33:18;8.45;;;1.88;;
63087;SDS011;49173;43.164;27.786;2022-10-16T10:36:15;12.13;;;2.55;;
63087;SDS011;49173;43.164;27.786;2022-10-16T10:39:00;5.65;;;2.08;;
63087;SDS011;49173;43.164;27.786;2022-10-16T10:44:36;5.22;;;1.77;;
63087;SDS011;49173;43.164;27.786;2022-10-16T11:06:32;4.82;;;1.88;;
63087;SDS011;49173;43.164;27.786;2022-10-16T11:14:30;7.93;;;2.10;;
63087;SDS011;49173;43.164;27.786;2022-10-16T11:17:06;4.45;;;1.92;;
63087;SDS011;49173;43.164;27.786;2022-10-16T11:25:28;12.05;;;3.83;;
63087;SDS011;49173;43.164;27.786;2022-10-16T11:27:39;4.63;;;2.03;;
63087;SDS011;49173;43.164;27.786;2022-10-16T11:30:22;8.52;;;3.10;;
63087;SDS011;49173;43.164;27.786;2022-10-16T11:32:54;8.98;;;2.90;;
63087;SDS011;49173;43.164;27.786;2022-10-16T11:35:48;7.82;;;2.38;;
63087;SDS011;49173;43.164;27.786;2022-10-16T11:38:42;3.72;;;2.10;;
63087;SDS011;49173;43.164;27.786;2022-10-16T11:41:42;4.18;;;1.80;;
63087;SDS011;49173;43.164;27.786;2022-10-16T11:47:12;4.28;;;1.80;;
63087;SDS011;49173;43.164;27.786;2022-10-16T11:49:40;7.53;;;2.80;;
63087;SDS011;49173;43.164;27.786;2022-10-16T11:52:14;7.18;;;1.90;;
63087;SDS011;49173;43.164;27.786;2022-10-16T11:54:51;4.47;;;2.20;;
63087;SDS011;49173;43.164;27.786;2022-10-16T11:57:26;6.63;;;2.23;;
63087;SDS011;49173;43.164;27.786;2022-10-16T12:00:02;6.85;;;2.92;;
63087;SDS011;49173;43.164;27.786;2022-10-16T12:02:57;3.90;;;2.13;;
63087;SDS011;49173;43.164;27.786;2022-10-16T12:08:24;5.55;;;2.65;;
63087;SDS011;49173;43.164;27.786;2022-10-16T12:10:51;6.05;;;2.95;;
63087;SDS011;49173;43.164;27.786;2022-10-16T12:13:31;11.68;;;2.58;;
63087;SDS011;49173;43.164;27.786;2022-10-16T12:16:06;6.43;;;3.25;;
63087;SDS011;49173;43.164;27.786;2022-10-16T12:18:38;7.75;;;2.60;;
63087;SDS011;49173;43.164;27.786;2022-10-16T12:21:06;4.25;;;2.13;;
63087;SDS011;49173;43.164;27.786;2022-10-16T12:23:33;7.60;;;1.70;;
63087;SDS011;49173;43.164;27.786;2022-10-16T12:26:04;6.95;;;2.13;;
63087;SDS011;49173;43.164;27.786;2022-10-16T12:28:31;6.53;;;2.08;;
63087;SDS011;49173;43.164;27.786;2022-10-16T12:33:32;5.97;;;2.10;;
63087;SDS011;49173;43.164;27.786;2022-10-16T12:36:02;5.65;;;2.05;;
63087;SDS011;49173;43.164;27.786;2022-10-16T12:38:37;4.72;;;1.90;;
63087;SDS011;49173;43.164;27.786;2022-10-16T12:41:11;3.97;;;1.90;;
63087;SDS011;49173;43.164;27.786;2022-10-16T12:43:46;4.57;;;2.22;;
63087;SDS011;49173;43.164;27.786;2022-10-16T12:48:39;3.80;;;1.90;;
63087;SDS011;49173;43.164;27.786;2022-10-16T12:51:19;4.63;;;2.25;;
63087;SDS011;49173;43.164;27.786;2022-10-16T12:59:52;3.75;;;2.50;;
63087;SDS011;49173;43.164;27.786;2022-10-16T13:27:53;11.38;;;2.40;;
63087;SDS011;49173;43.164;27.786;2022-10-16T13:32:59;5.03;;;2.25;;
63087;SDS011;49173;43.164;27.786;2022-10-16T13:35:28;4.95;;;2.30;;
63087;SDS011;49173;43.164;27.786;2022-10-16T13:40:47;7.07;;;2.20;;
63087;SDS011;49173;43.164;27.786;2022-10-16T13:43:43;3.97;;;2.40;;
63087;SDS011;49173;43.164;27.786;2022-10-16T13:46:16;5.07;;;2.47;;
63087;SDS011;49173;43.164;27.786;2022-10-16T13:48:42;5.85;;;2.45;;
63087;SDS011;49173;43.164;27.786;2022-10-16T13:51:12;10.48;;;2.63;;
63087;SDS011;49173;43.164;27.786;2022-10-16T13:53:41;5.70;;;2.40;;
63087;SDS011;49173;43.164;27.786;2022-10-16T13:56:10;4.45;;;2.65;;
63087;SDS011;49173;43.164;27.786;2022-10-16T13:58:37;6.40;;;2.50;;
63087;SDS011;49173;43.164;27.786;2022-10-16T14:01:04;4.60;;;2.70;;
63087;SDS011;49173;43.164;27.786;2022-10-16T14:03:39;6.28;;;2.58;;
63087;SDS011;49173;43.164;27.786;2022-10-16T14:06:06;6.20;;;2.60;;
63087;SDS011;49173;43.164;27.786;2022-10-16T14:08:41;9.32;;;3.80;;
63087;SDS011;49173;43.164;27.786;2022-10-16T14:11:09;11.68;;;5.28;;
63087;SDS011;49173;43.164;27.786;2022-10-16T14:13:37;5.95;;;3.55;;
63087;SDS011;49173;43.164;27.786;2022-10-16T14:16:16;5.80;;;2.65;;
63087;SDS011;49173;43.164;27.786;2022-10-16T14:18:55;6.50;;;2.70;;
63087;SDS011;49173;43.164;27.786;2022-10-16T14:21:24;13.60;;;3.13;;
63087;SDS011;49173;43.164;27.786;2022-10-16T14:23:51;7.35;;;2.38;;
63087;SDS011;49173;43.164;27.786;2022-10-16T14:26:19;7.40;;;3.83;;
63087;SDS011;49173;43.164;27.786;2022-10-16T14:31:24;5.72;;;2.45;;
63087;SDS011;49173;43.164;27.786;2022-10-16T14:33:52;37.85;;;3.55;;
63087;SDS011;49173;43.164;27.786;2022-10-16T14:36:18;10.32;;;3.05;;
63087;SDS011;49173;43.164;27.786;2022-10-16T14:38:56;18.65;;;2.70;;
63087;SDS011;49173;43.164;27.786;2022-10-16T14:41:22;5.03;;;2.30;;
63087;SDS011;49173;43.164;27.786;2022-10-16T14:43:50;10.25;;;2.17;;
63087;SDS011;49173;43.164;27.786;2022-10-16T14:46:19;8.82;;;2.15;;
63087;SDS011;49173;43.164;27.786;2022-10-16T14:49:16;7.03;;;2.08;;
63087;SDS011;49173;43.164;27.786;2022-10-16T14:51:46;7.57;;;1.98;;
63087;SDS011;49173;43.164;27.786;2022-10-16T14:54:13;5.60;;;2.10;;
63087;SDS011;49173;43.164;27.786;2022-10-16T15:04:50;7.88;;;2.58;;
63087;SDS011;49173;43.164;27.786;2022-10-16T15:07:16;10.50;;;2.30;;
63087;SDS011;49173;43.164;27.786;2022-10-16T15:09:42;6.20;;;2.30;;
63087;SDS011;49173;43.164;27.786;2022-10-16T15:12:08;14.32;;;6.18;;
63087;SDS011;49173;43.164;27.786;2022-10-16T15:14:34;4.97;;;2.28;;
63087;SDS011;49173;43.164;27.786;2022-10-16T15:16:59;6.88;;;2.20;;
63087;SDS011;49173;43.164;27.786;2022-10-16T15:19:25;8.60;;;3.00;;
63087;SDS011;49173;43.164;27.786;2022-10-16T15:21:51;9.55;;;2.38;;
63087;SDS011;49173;43.164;27.786;2022-10-16T15:24:17;3.65;;;2.17;;
63087;SDS011;49173;43.164;27.786;2022-10-16T15:26:43;8.45;;;2.30;;
63087;SDS011;49173;43.164;27.786;2022-10-16T15:29:11;12.48;;;2.25;;
63087;SDS011;49173;43.164;27.786;2022-10-16T15:31:38;5.97;;;2.10;;
63087;SDS011;49173;43.164;27.786;2022-10-16T15:34:08;4.88;;;2.35;;
63087;SDS011;49173;43.164;27.786;2022-10-16T15:36:36;6.35;;;2.45;;
63087;SDS011;49173;43.164;27.786;2022-10-16T15:39:05;12.38;;;7.43;;
63087;SDS011;49173;43.164;27.786;2022-10-16T15:41:40;25.92;;;13.80;;
63087;SDS011;49173;43.164;27.786;2022-10-16T15:44:07;11.30;;;6.53;;
63087;SDS011;49173;43.164;27.786;2022-10-16T15:46:33;9.65;;;6.35;;
63087;SDS011;49173;43.164;27.786;2022-10-16T15:48:59;11.98;;;9.13;;
63087;SDS011;49173;43.164;27.786;2022-10-16T15:51:26;11.90;;;7.45;;
63087;SDS011;49173;43.164;27.786;2022-10-16T15:53:57;14.53;;;8.67;;
63087;SDS011;49173;43.164;27.786;2022-10-16T15:56:23;21.67;;;11.15;;
63087;SDS011;49173;43.164;27.786;2022-10-16T15:58:51;9.60;;;5.97;;
63087;SDS011;49173;43.164;27.786;2022-10-16T16:01:17;14.80;;;8.60;;
63087;SDS011;49173;43.164;27.786;2022-10-16T16:03:43;15.50;;;6.28;;
63087;SDS011;49173;43.164;27.786;2022-10-16T16:06:10;37.85;;;17.85;;
63087;SDS011;49173;43.164;27.786;2022-10-16T16:08:37;100.78;;;56.20;;
63087;SDS011;49173;43.164;27.786;2022-10-16T16:11:05;64.25;;;38.90;;
63087;SDS011;49173;43.164;27.786;2022-10-16T16:13:34;43.75;;;22.75;;
63087;SDS011;49173;43.164;27.786;2022-10-16T16:16:06;46.83;;;28.47;;
63087;SDS011;49173;43.164;27.786;2022-10-16T16:18:33;35.35;;;19.00;;
63087;SDS011;49173;43.164;27.786;2022-10-16T16:20:59;14.57;;;7.00;;
63087;SDS011;49173;43.164;27.786;2022-10-16T16:23:25;10.57;;;4.68;;
63087;SDS011;49173;43.164;27.786;2022-10-16T16:26:04;10.65;;;3.85;;
63087;SDS011;49173;43.164;27.786;2022-10-16T16:28:36;70.40;;;47.47;;
63087;SDS011;49173;43.164;27.786;2022-10-16T16:31:03;23.20;;;17.67;;
63087;SDS011;49173;43.164;27.786;2022-10-16T16:33:29;56.28;;;32.40;;
63087;SDS011;49173;43.164;27.786;2022-10-16T16:36:00;75.47;;;44.35;;
63087;SDS011;49173;43.164;27.786;2022-10-16T16:38:29;73.45;;;43.50;;
63087;SDS011;49173;43.164;27.786;2022-10-16T16:40:57;60.33;;;34.75;;
63087;SDS011;49173;43.164;27.786;2022-10-16T16:43:26;66.22;;;57.50;;
63087;SDS011;49173;43.164;27.786;2022-10-16T16:45:53;34.50;;;30.85;;
63087;SDS011;49173;43.164;27.786;2022-10-16T16:48:20;22.90;;;20.70;;
63087;SDS011;49173;43.164;27.786;2022-10-16T16:50:46;11.55;;;7.63;;
63087;SDS011;49173;43.164;27.786;2022-10-16T16:53:12;10.45;;;5.55;;
63087;SDS011;49173;43.164;27.786;2022-10-16T16:55:38;6.55;;;3.50;;
63087;SDS011;49173;43.164;27.786;2022-10-16T16:58:04;5.35;;;4.22;;
63087;SDS011;49173;43.164;27.786;2022-10-16T17:00:31;9.55;;;5.97;;
63087;SDS011;49173;43.164;27.786;2022-10-16T17:02:57;11.80;;;6.18;;
63087;SDS011;49173;43.164;27.786;2022-10-16T17:05:23;10.65;;;5.30;;
63087;SDS011;49173;43.164;27.786;2022-10-16T17:07:48;11.05;;;4.72;;